Time;durP1;ratioP1;P1;durP2;ratioP2;P2;SDS_P1;SDS_P2;PMS_P1;PMS_P2;Temp;Humidity;BMP_temperature;BMP_pressure;BME280_temperature;BME280_humidity;BME280_pressure;Samples;Min_cycle;Max_cycle;Signal;HPM_P1;HPM_P2
2023/11/27 00:02:03;;;;;;;1.30;0.50;;;10.00;99.90;;;;;;5094357;28;20481;-70
2023/11/27 00:04:30;;;;;;;2.33;0.60;;;10.00;99.90;;;;;;5093687;28;20085;-70
2023/11/27 00:06:57;;;;;;;3.05;0.70;;;10.10;99.90;;;;;;5092504;28;20041;-70
2023/11/27 00:09:24;;;;;;;1.55;0.63;;;10.10;99.90;;;;;;5091938;28;20055;-70
2023/11/27 00:11:51;;;;;;;1.80;0.80;;;10.10;99.90;;;;;;5093887;28;20038;-70
2023/11/27 00:14:18;;;;;;;2.65;0.95;;;10.10;99.90;;;;;;5093930;28;20489;-70
2023/11/27 00:16:45;;;;;;;2.67;1.00;;;10.10;99.90;;;;;;5092621;28;20461;-70
2023/11/27 00:19:12;;;;;;;2.42;1.08;;;10.10;99.90;;;;;;5093900;28;20043;-70
2023/11/27 00:21:39;;;;;;;2.17;1.10;;;10.20;99.90;;;;;;5093584;28;20070;-70
2023/11/27 00:24:05;;;;;;;1.85;1.10;;;10.10;99.90;;;;;;5093688;28;20055;-69
2023/11/27 00:26:32;;;;;;;2.90;1.40;;;10.10;99.90;;;;;;5094230;28;20043;-69
2023/11/27 00:28:59;;;;;;;3.35;1.70;;;10.20;99.90;;;;;;5093969;28;20473;-70
2023/11/27 00:31:27;;;;;;;2.55;1.23;;;10.10;99.90;;;;;;5092507;28;20043;-70
2023/11/27 00:33:54;;;;;;;5.07;1.85;;;10.20;99.90;;;;;;5092467;28;20504;-69
2023/11/27 00:36:20;;;;;;;4.35;1.85;;;10.20;99.90;;;;;;5092254;28;20101;-70
2023/11/27 00:38:48;;;;;;;5.40;1.58;;;10.10;99.90;;;;;;5089445;28;20429;-69
2023/11/27 00:41:15;;;;;;;4.47;1.48;;;10.10;99.90;;;;;;5076181;28;20051;-69
2023/11/27 00:43:42;;;;;;;4.60;1.90;;;10.10;99.90;;;;;;5094175;28;20040;-70
2023/11/27 00:46:08;;;;;;;6.97;2.08;;;10.10;99.90;;;;;;5093676;28;20055;-71
2023/11/27 00:48:35;;;;;;;4.70;1.77;;;10.10;99.90;;;;;;5093488;28;20078;-70
2023/11/27 00:51:03;;;;;;;6.32;2.15;;;10.10;99.90;;;;;;5093969;28;20040;-70
2023/11/27 00:53:29;;;;;;;6.70;2.17;;;10.10;99.90;;;;;;5092201;28;20503;-71
2023/11/27 00:55:56;;;;;;;6.28;2.20;;;10.10;99.90;;;;;;5089497;28;20036;-70
2023/11/27 00:58:23;;;;;;;5.95;2.20;;;10.10;99.90;;;;;;5089438;28;20467;-70
2023/11/27 01:00:50;;;;;;;10.27;2.42;;;10.10;99.90;;;;;;5089973;28;20128;-69
2023/11/27 01:03:19;;;;;;;5.88;2.10;;;10.10;99.90;;;;;;5089871;28;20094;-70
2023/11/27 01:05:46;;;;;;;8.65;2.00;;;10.10;99.90;;;;;;5090454;28;20044;-69
2023/11/27 01:08:13;;;;;;;6.35;2.50;;;10.10;99.90;;;;;;5087811;28;20386;-70
2023/11/27 01:10:40;;;;;;;7.05;1.90;;;10.10;99.90;;;;;;5091756;28;20040;-69
2023/11/27 01:13:07;;;;;;;7.32;1.95;;;10.10;99.90;;;;;;5091853;28;20036;-70
2023/11/27 01:15:34;;;;;;;7.78;1.98;;;10.00;99.90;;;;;;5092142;28;20477;-70
2023/11/27 01:18:00;;;;;;;5.53;1.70;;;10.00;99.90;;;;;;5091687;28;20453;-70
2023/11/27 01:20:28;;;;;;;7.05;1.80;;;10.00;99.90;;;;;;5095369;28;20062;-70
2023/11/27 01:22:54;;;;;;;8.48;1.90;;;10.00;99.90;;;;;;5097517;28;20044;-70
2023/11/27 01:25:21;;;;;;;5.15;1.70;;;10.00;99.90;;;;;;5096652;28;20566;-70
2023/11/27 01:27:48;;;;;;;7.38;1.70;;;10.00;99.90;;;;;;5096871;28;20064;-70
2023/11/27 01:30:17;;;;;;;5.00;1.63;;;10.00;99.90;;;;;;5095480;28;20044;-70
2023/11/27 01:32:43;;;;;;;8.98;1.65;;;10.00;99.90;;;;;;5095737;28;20473;-69
2023/11/27 01:35:10;;;;;;;7.95;1.75;;;10.00;99.90;;;;;;5096732;28;20040;-70
2023/11/27 01:37:37;;;;;;;5.22;1.70;;;10.00;99.90;;;;;;5097291;28;20040;-69
2023/11/27 01:40:04;;;;;;;8.00;2.22;;;10.00;99.90;;;;;;5095355;28;20048;-70
2023/11/27 01:42:31;;;;;;;7.45;2.05;;;10.00;99.90;;;;;;5095130;28;20044;-70
2023/11/27 01:44:57;;;;;;;8.25;1.40;;;10.00;99.90;;;;;;5095785;28;20146;-70
2023/11/27 01:47:27;;;;;;;5.05;1.30;;;10.00;99.90;;;;;;5096975;28;20433;-70
2023/11/27 01:49:54;;;;;;;6.55;1.60;;;9.90;99.90;;;;;;5095581;28;20032;-70
2023/11/27 01:52:21;;;;;;;4.53;1.38;;;10.00;99.90;;;;;;5095688;28;20051;-70
2023/11/27 01:54:48;;;;;;;5.72;1.20;;;10.00;99.90;;;;;;5095624;28;20043;-70
2023/11/27 01:57:15;;;;;;;3.55;1.05;;;9.90;99.90;;;;;;5095028;28;20129;-70
2023/11/27 01:59:43;;;;;;;8.30;1.58;;;9.90;99.90;;;;;;5095125;28;20036;-70
2023/11/27 02:02:09;;;;;;;6.38;1.55;;;9.90;99.90;;;;;;5095365;28;20043;-70
2023/11/27 02:04:37;;;;;;;4.55;1.23;;;9.90;99.90;;;;;;5095430;28;20093;-70
2023/11/27 02:07:04;;;;;;;6.85;1.17;;;9.90;99.90;;;;;;5094868;28;20083;-71
2023/11/27 02:09:31;;;;;;;9.50;1.50;;;9.90;99.90;;;;;;5096020;28;20081;-70
2023/11/27 02:11:58;;;;;;;5.88;1.15;;;9.80;99.90;;;;;;5094712;28;20036;-70
2023/11/27 02:14:26;;;;;;;7.63;0.95;;;9.80;99.90;;;;;;5078134;28;20135;-69
2023/11/27 02:16:53;;;;;;;6.65;0.93;;;9.80;99.90;;;;;;5095924;28;20029;-69
2023/11/27 02:19:20;;;;;;;5.28;1.35;;;9.80;99.90;;;;;;5096112;28;20393;-69
2023/11/27 02:21:47;;;;;;;6.70;1.17;;;9.80;99.90;;;;;;5094664;28;20040;-69
2023/11/27 02:24:14;;;;;;;4.50;1.05;;;9.80;99.90;;;;;;5094701;28;20485;-69
2023/11/27 02:26:41;;;;;;;7.78;1.08;;;9.80;99.90;;;;;;5094398;28;20135;-69
2023/11/27 02:29:08;;;;;;;5.20;1.05;;;9.80;99.90;;;;;;5095586;28;20039;-69
2023/11/27 02:31:35;;;;;;;5.18;1.05;;;9.80;99.90;;;;;;5094601;28;20051;-69
2023/11/27 02:34:02;;;;;;;6.65;1.27;;;9.80;99.90;;;;;;5095787;28;20090;-69
2023/11/27 02:36:29;;;;;;;7.03;1.17;;;9.80;99.90;;;;;;5095704;28;20043;-69
2023/11/27 02:38:56;;;;;;;9.30;1.52;;;9.80;99.90;;;;;;5094344;28;20059;-69
2023/11/27 02:41:24;;;;;;;8.55;1.20;;;9.80;99.90;;;;;;5094792;28;20048;-69
2023/11/27 02:43:51;;;;;;;6.40;1.10;;;9.80;99.90;;;;;;5095701;28;20132;-69
2023/11/27 02:46:18;;;;;;;4.35;1.20;;;9.80;99.90;;;;;;5095940;28;20409;-69
2023/11/27 02:48:45;;;;;;;9.38;1.20;;;9.80;99.90;;;;;;5093768;28;20066;-69
2023/11/27 02:51:11;;;;;;;5.50;1.15;;;9.80;99.90;;;;;;5094625;28;20423;-69
2023/11/27 02:53:38;;;;;;;3.42;0.80;;;9.80;99.90;;;;;;5093944;28;20051;-69
2023/11/27 02:56:05;;;;;;;4.10;1.00;;;9.80;99.90;;;;;;5093810;28;20485;-69
2023/11/27 02:58:32;;;;;;;4.80;1.00;;;9.80;99.90;;;;;;5095467;28;20074;-69
2023/11/27 03:00:59;;;;;;;3.97;1.05;;;9.80;99.90;;;;;;5095006;28;20064;-69
2023/11/27 03:03:26;;;;;;;4.35;1.13;;;9.80;99.90;;;;;;5095203;28;20134;-69
2023/11/27 03:05:53;;;;;;;8.38;1.20;;;9.80;99.90;;;;;;5095173;28;20070;-69
2023/11/27 03:08:19;;;;;;;7.97;1.30;;;9.80;99.90;;;;;;5094724;28;20351;-69
2023/11/27 03:10:47;;;;;;;2.90;0.77;;;9.80;99.90;;;;;;5094912;28;20043;-69
2023/11/27 03:13:13;;;;;;;4.30;0.98;;;9.80;99.90;;;;;;5095423;28;20036;-69
2023/11/27 03:15:40;;;;;;;4.22;0.90;;;9.80;99.90;;;;;;5095371;28;20083;-69
2023/11/27 03:18:07;;;;;;;5.38;1.05;;;9.80;99.90;;;;;;5094729;28;20043;-70
2023/11/27 03:20:34;;;;;;;5.25;1.10;;;9.80;99.90;;;;;;5093995;28;20052;-70
2023/11/27 03:23:00;;;;;;;6.72;1.52;;;9.80;99.90;;;;;;5093475;28;20047;-70
2023/11/27 03:25:27;;;;;;;6.55;1.10;;;9.80;99.90;;;;;;5094976;28;20044;-70
2023/11/27 03:27:54;;;;;;;4.13;0.80;;;9.70;99.90;;;;;;5093968;28;20073;-70
2023/11/27 03:30:21;;;;;;;3.83;1.30;;;9.80;99.90;;;;;;5094879;28;20158;-70
2023/11/27 03:32:50;;;;;;;3.80;0.93;;;9.70;99.90;;;;;;5094653;28;20469;-69
2023/11/27 03:35:17;;;;;;;2.35;0.80;;;9.70;99.90;;;;;;5094953;28;20040;-69
2023/11/27 03:37:44;;;;;;;6.13;1.00;;;9.70;99.90;;;;;;5094492;28;20040;-69
2023/11/27 03:40:10;;;;;;;6.38;1.27;;;9.70;99.90;;;;;;5094885;28;20056;-69
2023/11/27 03:42:37;;;;;;;7.25;1.50;;;9.70;99.90;;;;;;5092938;28;20427;-69
2023/11/27 03:45:04;;;;;;;4.25;0.95;;;9.70;99.90;;;;;;5093499;28;20083;-69
2023/11/27 03:47:31;;;;;;;3.80;1.02;;;9.70;99.90;;;;;;5094440;28;20055;-69
2023/11/27 03:49:58;;;;;;;8.27;0.95;;;9.70;99.90;;;;;;5075977;28;20125;-69
2023/11/27 03:52:24;;;;;;;3.17;0.85;;;9.70;99.90;;;;;;5094264;28;20063;-69
2023/11/27 03:54:51;;;;;;;5.22;1.00;;;9.70;99.90;;;;;;5094726;28;20040;-69
2023/11/27 03:57:19;;;;;;;5.32;1.00;;;9.70;99.90;;;;;;5094687;28;20469;-69
2023/11/27 03:59:47;;;;;;;6.38;1.17;;;9.70;99.90;;;;;;5094339;28;20043;-69
2023/11/27 04:02:13;;;;;;;3.20;0.70;;;9.70;99.90;;;;;;5094613;28;20043;-69
2023/11/27 04:04:40;;;;;;;4.65;1.00;;;9.70;99.90;;;;;;5094479;28;20043;-69
2023/11/27 04:07:07;;;;;;;7.53;1.30;;;9.70;99.90;;;;;;5093119;28;20074;-69
2023/11/27 04:09:34;;;;;;;5.63;1.10;;;9.60;99.90;;;;;;5093195;28;20040;-69
2023/11/27 04:12:01;;;;;;;6.55;1.10;;;9.60;99.90;;;;;;5094521;28;20607;-69
2023/11/27 04:14:27;;;;;;;6.65;1.58;;;9.60;99.90;;;;;;5076242;28;20047;-69
2023/11/27 04:16:54;;;;;;;6.90;1.40;;;9.60;99.90;;;;;;5093964;28;20036;-69
2023/11/27 04:19:21;;;;;;;5.38;1.40;;;9.60;99.90;;;;;;5093673;28;20393;-70
2023/11/27 04:21:48;;;;;;;6.20;1.23;;;9.60;99.90;;;;;;5094276;28;20040;-69
2023/11/27 04:24:15;;;;;;;5.07;1.45;;;9.60;99.90;;;;;;5094152;28;20044;-69
2023/11/27 04:26:42;;;;;;;5.97;1.50;;;9.60;99.90;;;;;;5094089;28;20036;-69
2023/11/27 04:29:09;;;;;;;5.57;1.25;;;9.60;99.90;;;;;;5093769;28;20051;-69
2023/11/27 04:31:36;;;;;;;5.03;1.40;;;9.60;99.90;;;;;;5093887;28;20085;-69
2023/11/27 04:34:03;;;;;;;5.95;1.40;;;9.60;99.90;;;;;;5093900;28;20061;-69
2023/11/27 04:36:30;;;;;;;5.20;1.52;;;9.60;99.90;;;;;;5094142;28;20102;-69
2023/11/27 04:38:56;;;;;;;3.92;1.40;;;9.60;99.90;;;;;;5093540;28;20070;-69
2023/11/27 04:41:23;;;;;;;3.83;1.42;;;9.50;99.90;;;;;;5093714;28;20040;-69
2023/11/27 04:43:51;;;;;;;4.80;1.52;;;9.50;99.90;;;;;;5093757;28;20047;-69
2023/11/27 04:46:18;;;;;;;3.17;1.23;;;9.60;99.90;;;;;;5093445;28;20107;-69
2023/11/27 04:48:45;;;;;;;3.88;1.70;;;9.50;99.90;;;;;;5093816;28;20465;-70
2023/11/27 04:51:12;;;;;;;5.10;1.70;;;9.50;99.90;;;;;;5093300;28;20036;-69
2023/11/27 04:53:38;;;;;;;3.97;1.55;;;9.50;99.90;;;;;;5095647;28;20123;-70
2023/11/27 04:56:05;;;;;;;3.95;1.63;;;9.50;99.90;;;;;;5097616;28;20090;-70
2023/11/27 04:58:32;;;;;;;3.72;1.60;;;9.50;99.90;;;;;;5097566;28;20067;-69
2023/11/27 05:00:59;;;;;;;6.63;1.70;;;9.60;99.90;;;;;;5097534;28;20094;-69
2023/11/27 05:03:26;;;;;;;4.50;1.45;;;9.50;99.90;;;;;;5097681;28;20048;-69
2023/11/27 05:05:57;;;;;;;5.43;1.90;;;9.50;99.90;;;;;;5096340;28;20436;-69
2023/11/27 05:08:25;;;;;;;5.22;2.00;;;9.50;99.90;;;;;;5097834;28;20380;-69
2023/11/27 05:10:52;;;;;;;7.93;1.60;;;9.50;99.90;;;;;;5097389;28;20036;-70
2023/11/27 05:13:19;;;;;;;6.45;1.75;;;9.50;99.90;;;;;;5097409;28;20089;-70
2023/11/27 05:15:45;;;;;;;6.18;1.73;;;9.50;99.90;;;;;;5097856;28;20079;-70
2023/11/27 05:18:12;;;;;;;4.90;1.70;;;9.50;99.90;;;;;;5097557;28;20044;-70
2023/11/27 05:20:39;;;;;;;6.30;1.88;;;9.50;99.90;;;;;;5097843;28;20127;-69
2023/11/27 05:23:07;;;;;;;5.85;1.88;;;9.50;99.90;;;;;;5095815;28;20140;-69
2023/11/27 05:25:34;;;;;;;3.67;1.75;;;9.50;99.90;;;;;;5097024;28;20051;-69
2023/11/27 05:28:01;;;;;;;5.50;1.70;;;9.50;99.90;;;;;;5096465;28;20048;-69
2023/11/27 05:30:28;;;;;;;11.38;1.95;;;9.40;99.90;;;;;;5097535;28;20123;-70
2023/11/27 05:32:55;;;;;;;5.82;2.20;;;9.40;99.90;;;;;;5097469;28;20036;-69
2023/11/27 05:35:22;;;;;;;4.68;1.98;;;9.40;99.90;;;;;;5078962;28;20044;-71
2023/11/27 05:37:49;;;;;;;5.07;1.60;;;9.40;99.90;;;;;;5097100;28;20043;-69
2023/11/27 05:40:16;;;;;;;4.65;1.83;;;9.40;99.90;;;;;;5096910;28;20052;-70
2023/11/27 05:42:43;;;;;;;4.57;2.10;;;9.40;99.90;;;;;;5095510;28;20135;-72
2023/11/27 05:45:10;;;;;;;4.57;1.63;;;9.40;99.90;;;;;;5097507;28;20044;-71
2023/11/27 05:47:39;;;;;;;2.72;1.58;;;9.40;99.90;;;;;;5096145;28;20117;-71
2023/11/27 05:50:06;;;;;;;4.07;1.80;;;9.40;99.90;;;;;;5097179;28;20040;-72
2023/11/27 05:52:33;;;;;;;4.07;2.13;;;9.40;99.90;;;;;;5097122;28;20119;-71
2023/11/27 05:55:00;;;;;;;4.75;1.67;;;9.40;99.90;;;;;;5097006;28;20036;-71
2023/11/27 05:57:26;;;;;;;3.85;1.67;;;9.40;99.90;;;;;;5096907;28;20036;-71
2023/11/27 05:59:53;;;;;;;4.70;1.60;;;9.40;99.90;;;;;;5096863;28;20036;-71
2023/11/27 06:02:20;;;;;;;5.55;1.67;;;9.40;99.90;;;;;;5096465;28;20047;-71
2023/11/27 06:04:47;;;;;;;5.90;1.80;;;9.40;99.90;;;;;;5095988;28;20043;-71
2023/11/27 06:07:14;;;;;;;5.38;1.70;;;9.40;99.90;;;;;;5096227;28;20039;-72
2023/11/27 06:09:41;;;;;;;4.03;1.60;;;9.40;99.90;;;;;;5096370;28;20074;-72
2023/11/27 06:12:10;;;;;;;6.65;1.73;;;9.40;99.90;;;;;;5096237;28;20389;-71
2023/11/27 06:14:37;;;;;;;5.90;1.60;;;9.40;99.90;;;;;;5096581;28;20040;-71
2023/11/27 06:17:05;;;;;;;3.15;1.60;;;9.30;99.90;;;;;;5094765;28;20093;-71
2023/11/27 06:19:32;;;;;;;4.63;1.90;;;9.40;99.90;;;;;;5096539;28;20044;-72
2023/11/27 06:21:59;;;;;;;6.43;1.60;;;9.30;99.90;;;;;;5096212;28;20040;-71
2023/11/27 06:24:27;;;;;;;3.75;1.58;;;9.30;99.90;;;;;;5096260;28;20032;-72
2023/11/27 06:26:54;;;;;;;5.05;1.70;;;9.30;99.90;;;;;;5095968;28;20524;-72
2023/11/27 06:29:21;;;;;;;4.35;1.40;;;9.30;99.90;;;;;;5095973;28;20047;-72
2023/11/27 06:31:48;;;;;;;4.38;1.42;;;9.30;99.90;;;;;;5096085;28;20522;-73
2023/11/27 06:34:15;;;;;;;3.80;1.45;;;9.30;99.90;;;;;;5095826;28;20044;-72
2023/11/27 06:36:42;;;;;;;3.65;1.42;;;9.30;99.90;;;;;;5096279;28;20040;-72
2023/11/27 06:39:09;;;;;;;4.47;1.30;;;9.30;99.90;;;;;;5095385;28;20059;-72
2023/11/27 06:41:36;;;;;;;1.92;1.10;;;9.30;99.90;;;;;;5096111;28;20044;-71
2023/11/27 06:44:03;;;;;;;3.92;1.42;;;9.30;99.90;;;;;;5095988;28;20127;-72
2023/11/27 06:46:29;;;;;;;3.65;1.50;;;9.30;99.90;;;;;;5094463;28;20051;-72
2023/11/27 06:48:56;;;;;;;3.03;1.33;;;9.30;99.90;;;;;;5095484;28;20047;-72
2023/11/27 06:51:23;;;;;;;3.85;1.70;;;9.30;99.90;;;;;;5094579;28;20063;-70
2023/11/27 06:53:50;;;;;;;5.53;1.52;;;9.30;99.90;;;;;;5095777;28;20046;-70
2023/11/27 06:56:17;;;;;;;3.15;1.08;;;9.30;99.90;;;;;;5095414;28;20036;-70
2023/11/27 06:58:43;;;;;;;3.63;1.20;;;9.30;99.90;;;;;;5095572;28;20055;-70
2023/11/27 07:01:10;;;;;;;2.30;1.27;;;9.20;99.90;;;;;;5095200;28;20044;-70
2023/11/27 07:03:38;;;;;;;2.97;1.30;;;9.20;99.90;;;;;;5095123;28;20044;-70
2023/11/27 07:06:04;;;;;;;3.42;1.58;;;9.20;99.90;;;;;;5095497;28;20047;-70
2023/11/27 07:08:31;;;;;;;3.60;1.48;;;9.20;99.90;;;;;;5093744;28;20044;-70
2023/11/27 07:10:58;;;;;;;2.75;1.52;;;9.20;99.90;;;;;;5093872;28;20398;-70
2023/11/27 07:13:26;;;;;;;2.97;1.45;;;9.20;99.90;;;;;;5094841;28;20071;-70
2023/11/27 07:15:53;;;;;;;3.47;1.70;;;9.20;99.90;;;;;;5094546;28;20071;-70
2023/11/27 07:18:20;;;;;;;2.63;1.65;;;9.20;99.90;;;;;;5094377;28;20442;-70
2023/11/27 07:20:53;;;;;;;3.53;1.70;;;9.20;99.90;;;;;;5095298;28;20047;-71
2023/11/27 07:23:21;;;;;;;4.05;1.88;;;9.30;99.90;;;;;;5095279;28;20048;-71
2023/11/27 07:25:48;;;;;;;4.20;2.38;;;9.20;99.90;;;;;;5095231;28;20040;-71
2023/11/27 07:28:15;;;;;;;3.25;1.88;;;9.30;99.90;;;;;;5094561;28;20032;-71
2023/11/27 07:30:43;;;;;;;5.53;2.20;;;9.20;99.90;;;;;;5093287;28;20504;-71
2023/11/27 07:33:10;;;;;;;3.33;1.90;;;9.20;99.90;;;;;;5094782;28;20042;-71
2023/11/27 07:35:37;;;;;;;3.65;1.90;;;9.20;99.90;;;;;;5094981;28;20043;-71
2023/11/27 07:38:03;;;;;;;3.17;1.98;;;9.20;99.90;;;;;;5094846;28;20036;-71
2023/11/27 07:40:30;;;;;;;6.55;2.42;;;9.30;99.90;;;;;;5094501;28;20147;-71
2023/11/27 07:42:57;;;;;;;3.50;2.40;;;9.30;99.90;;;;;;5094737;28;20040;-71
2023/11/27 07:45:24;;;;;;;3.90;2.38;;;9.30;99.90;;;;;;5094875;28;20040;-71
2023/11/27 07:47:51;;;;;;;4.35;2.40;;;9.30;99.90;;;;;;5095609;28;20044;-71
2023/11/27 07:50:19;;;;;;;6.28;2.40;;;9.30;99.90;;;;;;5098542;28;20067;-70
2023/11/27 07:52:47;;;;;;;4.65;2.50;;;9.30;99.90;;;;;;5097897;28;20113;-71
2023/11/27 07:55:15;;;;;;;4.15;2.72;;;9.30;99.90;;;;;;5095418;28;20040;-72
2023/11/27 07:57:41;;;;;;;7.10;4.03;;;9.30;99.90;;;;;;5094778;28;20038;-71
2023/11/27 08:00:11;;;;;;;4.43;2.70;;;9.30;99.90;;;;;;5094556;28;20051;-71
2023/11/27 08:02:44;;;;;;;3.95;2.78;;;9.30;99.90;;;;;;5094177;28;20048;-71
2023/11/27 08:05:12;;;;;;;4.03;2.47;;;9.20;99.90;;;;;;5094684;28;20538;-71
2023/11/27 08:07:39;;;;;;;4.55;2.55;;;9.20;99.90;;;;;;5076282;28;20039;-71
2023/11/27 08:10:08;;;;;;;4.38;2.55;;;9.30;99.90;;;;;;5093896;28;20064;-71
2023/11/27 08:12:38;;;;;;;3.67;2.40;;;9.30;99.90;;;;;;5094037;28;20036;-71
2023/11/27 08:15:07;;;;;;;3.45;2.28;;;9.30;99.90;;;;;;5093841;28;20044;-72
2023/11/27 08:17:34;;;;;;;5.72;2.95;;;9.30;99.90;;;;;;5094409;28;20040;-72
2023/11/27 08:20:05;;;;;;;5.60;2.65;;;9.30;99.90;;;;;;5094277;28;20074;-72
2023/11/27 08:22:31;;;;;;;5.03;2.95;;;9.30;99.90;;;;;;5094169;28;20043;-72
2023/11/27 08:25:00;;;;;;;4.15;2.90;;;9.30;99.90;;;;;;5093911;28;20044;-72
2023/11/27 08:27:27;;;;;;;5.38;3.08;;;9.30;99.90;;;;;;5093263;28;20090;-71
2023/11/27 08:29:53;;;;;;;7.53;2.75;;;9.30;99.90;;;;;;5093919;28;20055;-72
2023/11/27 08:32:20;;;;;;;6.00;2.63;;;9.30;99.90;;;;;;5092231;28;20118;-72
2023/11/27 08:34:48;;;;;;;6.20;2.75;;;9.30;99.90;;;;;;5093469;28;20078;-72
2023/11/27 08:37:16;;;;;;;4.60;2.90;;;9.30;99.90;;;;;;5093706;28;20044;-72
2023/11/27 08:39:44;;;;;;;4.72;2.78;;;9.30;99.90;;;;;;5093617;28;20509;-72
2023/11/27 08:42:10;;;;;;;4.72;2.70;;;9.30;99.90;;;;;;5093073;28;20028;-72
2023/11/27 08:44:37;;;;;;;8.70;2.70;;;9.30;99.90;;;;;;5090170;28;20032;-72
2023/11/27 08:47:05;;;;;;;4.65;2.70;;;9.40;99.90;;;;;;5092682;28;20036;-71
2023/11/27 08:49:32;;;;;;;5.60;2.97;;;9.40;99.90;;;;;;5093206;28;20040;-73
2023/11/27 08:51:59;;;;;;;10.13;3.47;;;9.40;99.90;;;;;;5090403;28;20098;-72
2023/11/27 08:54:32;;;;;;;5.45;2.90;;;9.30;99.90;;;;;;5092965;28;20035;-72
2023/11/27 08:56:59;;;;;;;4.95;2.72;;;9.30;99.90;;;;;;5091995;28;20040;-71
2023/11/27 08:59:26;;;;;;;3.92;2.80;;;9.30;99.90;;;;;;5092769;28;20116;-72
2023/11/27 09:01:53;;;;;;;3.47;2.47;;;9.30;99.90;;;;;;5092933;28;20044;-72
2023/11/27 09:04:20;;;;;;;4.65;2.75;;;9.30;99.90;;;;;;5090520;28;20028;-72
2023/11/27 09:06:47;;;;;;;7.88;2.90;;;9.30;99.90;;;;;;5093067;28;20043;-72
2023/11/27 09:09:14;;;;;;;4.75;2.60;;;9.30;99.90;;;;;;5092707;28;20554;-72
2023/11/27 09:11:46;;;;;;;6.32;2.67;;;9.30;99.90;;;;;;5091885;28;20036;-72
2023/11/27 09:14:13;;;;;;;7.85;2.92;;;9.40;99.90;;;;;;5091693;28;20032;-72
2023/11/27 09:16:39;;;;;;;5.32;3.10;;;9.40;99.90;;;;;;5089065;28;20342;-72
2023/11/27 09:19:07;;;;;;;6.25;3.55;;;9.40;99.90;;;;;;5093180;28;20063;-72
2023/11/27 09:21:34;;;;;;;8.18;3.10;;;9.40;99.90;;;;;;5092164;28;20409;-73
2023/11/27 09:24:00;;;;;;;5.15;3.42;;;9.40;99.90;;;;;;5092579;28;20109;-72
2023/11/27 09:26:27;;;;;;;5.95;3.55;;;9.40;99.90;;;;;;5091649;28;20107;-72
2023/11/27 09:28:54;;;;;;;6.00;3.28;;;9.40;99.90;;;;;;5092723;28;20063;-72
2023/11/27 09:31:23;;;;;;;4.60;3.65;;;9.40;99.90;;;;;;5092665;28;20077;-72
2023/11/27 09:33:50;;;;;;;5.63;3.47;;;9.40;99.90;;;;;;5092611;28;20050;-72
2023/11/27 09:36:16;;;;;;;5.97;3.67;;;9.40;99.90;;;;;;5092818;28;20499;-72
2023/11/27 09:38:43;;;;;;;7.10;3.90;;;9.40;99.90;;;;;;5091247;28;20066;-72
2023/11/27 09:41:10;;;;;;;5.15;3.50;;;9.40;99.90;;;;;;5093960;28;20052;-72
2023/11/27 09:43:37;;;;;;;7.93;3.63;;;9.40;99.90;;;;;;5096365;28;20056;-72
2023/11/27 09:46:04;;;;;;;5.82;3.72;;;9.40;99.90;;;;;;5096223;28;20044;-72
2023/11/27 09:48:34;;;;;;;6.28;3.70;;;9.40;99.90;;;;;;5096195;28;20469;-72
2023/11/27 09:51:06;;;;;;;5.65;3.60;;;9.50;99.90;;;;;;5095075;28;20036;-72
2023/11/27 09:53:40;;;;;;;6.22;3.60;;;9.50;99.90;;;;;;5096183;28;20040;-72
2023/11/27 09:56:07;;;;;;;6.25;3.83;;;9.60;99.90;;;;;;5096068;28;20036;-73
2023/11/27 09:58:34;;;;;;;8.35;4.18;;;9.60;99.90;;;;;;5096400;28;20042;-72
2023/11/27 10:01:02;;;;;;;4.80;3.80;;;9.60;99.90;;;;;;5096601;28;20047;-69
2023/11/27 10:03:29;;;;;;;6.82;3.95;;;9.70;99.90;;;;;;5095848;28;20047;-68
2023/11/27 10:06:00;;;;;;;6.28;3.65;;;9.80;99.90;;;;;;5094038;28;20043;-68
2023/11/27 10:08:27;;;;;;;4.22;3.75;;;9.80;99.90;;;;;;5096988;28;20048;-69
2023/11/27 10:10:53;;;;;;;5.97;3.88;;;9.90;99.90;;;;;;5096153;28;20040;-68
2023/11/27 10:13:20;;;;;;;4.45;3.55;;;9.90;99.90;;;;;;5095570;28;20401;-68
2023/11/27 10:16:04;;;;;;;7.03;3.88;;;9.80;99.90;;;;;;5095296;28;20064;-68
2023/11/27 10:18:32;;;;;;;5.35;3.72;;;9.90;99.90;;;;;;5095949;28;20097;-68
2023/11/27 10:20:59;;;;;;;6.85;4.20;;;9.80;99.90;;;;;;5096465;28;20473;-69
2023/11/27 10:23:26;;;;;;;5.78;3.90;;;9.90;99.90;;;;;;5096075;28;20087;-69
2023/11/27 10:25:52;;;;;;;5.03;3.65;;;9.80;99.90;;;;;;5094415;28;20404;-69
2023/11/27 10:28:21;;;;;;;6.28;4.07;;;9.80;99.90;;;;;;5095283;28;20031;-68
2023/11/27 10:30:49;;;;;;;5.60;3.70;;;9.80;99.90;;;;;;5096062;28;20036;-69
2023/11/27 10:33:15;;;;;;;7.57;3.90;;;9.80;99.90;;;;;;5096026;28;20478;-68
2023/11/27 10:35:42;;;;;;;4.43;3.53;;;9.80;99.90;;;;;;5096518;28;20039;-69
2023/11/27 10:38:09;;;;;;;5.07;3.78;;;9.80;99.90;;;;;;5095940;28;20485;-68
2023/11/27 10:40:36;;;;;;;5.22;3.83;;;9.80;99.90;;;;;;5096013;28;20052;-69
2023/11/27 10:43:03;;;;;;;4.63;3.80;;;9.80;99.90;;;;;;5096125;28;20453;-69
2023/11/27 10:45:33;;;;;;;7.20;3.70;;;9.80;99.90;;;;;;5095587;28;20032;-69
2023/11/27 10:47:59;;;;;;;5.93;3.70;;;9.80;99.90;;;;;;5094859;28;20036;-68
2023/11/27 10:50:27;;;;;;;6.70;3.63;;;9.90;99.90;;;;;;5092138;28;20032;-68
2023/11/27 10:52:55;;;;;;;6.25;3.83;;;9.90;99.90;;;;;;5095217;28;20038;-69
2023/11/27 10:55:22;;;;;;;5.60;3.20;;;9.90;99.90;;;;;;5095109;28;20036;-69
2023/11/27 10:57:49;;;;;;;5.10;3.38;;;9.90;99.90;;;;;;5094539;28;20032;-69
2023/11/27 11:00:39;;;;;;;5.35;2.80;;;9.90;99.90;;;;;;5095276;28;20522;-68
2023/11/27 11:03:07;;;;;;;4.22;3.25;;;10.00;99.90;;;;;;5094739;28;20036;-71
2023/11/27 11:05:35;;;;;;;6.00;3.38;;;10.00;99.90;;;;;;5094813;28;20199;-72
2023/11/27 11:08:02;;;;;;;7.43;3.58;;;10.00;99.90;;;;;;5083264;28;20032;-71
2023/11/27 11:10:31;;;;;;;5.50;3.28;;;10.10;99.90;;;;;;5079378;28;20469;-71
2023/11/27 11:12:58;;;;;;;4.55;3.03;;;10.10;99.90;;;;;;5093113;28;20115;-72
2023/11/27 11:15:26;;;;;;;5.18;3.00;;;10.10;99.90;;;;;;5087840;28;20369;-72
2023/11/27 11:17:54;;;;;;;4.22;2.80;;;10.00;99.90;;;;;;5088576;28;20040;-71
2023/11/27 11:20:25;;;;;;;5.55;3.00;;;10.00;99.90;;;;;;5084576;28;20130;-72
2023/11/27 11:22:52;;;;;;;4.47;2.97;;;10.00;99.90;;;;;;5089414;28;20047;-71
2023/11/27 11:25:19;;;;;;;3.97;2.97;;;10.00;99.90;;;;;;5088606;28;20044;-71
2023/11/27 11:27:47;;;;;;;4.00;2.75;;;10.00;99.90;;;;;;5092723;28;20044;-72
2023/11/27 11:30:13;;;;;;;4.38;2.85;;;10.00;99.90;;;;;;5073979;28;20094;-73
2023/11/27 11:32:41;;;;;;;4.20;2.80;;;9.90;99.90;;;;;;5085128;28;20033;-73
2023/11/27 11:35:11;;;;;;;4.53;2.70;;;10.00;99.90;;;;;;5084368;28;20066;-72
2023/11/27 11:37:38;;;;;;;3.70;2.67;;;10.00;99.90;;;;;;5093628;28;20104;-72
2023/11/27 11:40:05;;;;;;;4.70;2.70;;;10.00;99.90;;;;;;5082880;28;20041;-73
2023/11/27 11:42:33;;;;;;;4.57;2.80;;;10.00;99.90;;;;;;5084933;28;20040;-72
2023/11/27 11:45:00;;;;;;;5.20;2.70;;;10.10;99.90;;;;;;5086951;28;20451;-72
2023/11/27 11:47:27;;;;;;;5.05;2.65;;;10.10;99.90;;;;;;5081490;28;20048;-73
2023/11/27 11:49:55;;;;;;;3.83;2.28;;;10.00;99.90;;;;;;5086341;28;20068;-72
2023/11/27 11:52:23;;;;;;;5.60;2.70;;;10.00;99.90;;;;;;5073881;28;20044;-72
2023/11/27 11:54:50;;;;;;;4.78;2.22;;;10.00;99.90;;;;;;5072535;28;20033;-71
2023/11/27 11:57:18;;;;;;;5.93;2.55;;;9.90;99.90;;;;;;5073806;28;20055;-72
2023/11/27 11:59:46;;;;;;;3.75;2.70;;;9.80;99.90;;;;;;5073197;28;20036;-72
2023/11/27 12:02:14;;;;;;;3.75;2.58;;;9.80;99.90;;;;;;5069944;28;20045;-72
2023/11/27 12:04:40;;;;;;;4.18;2.70;;;9.80;99.90;;;;;;5075139;28;20045;-72
2023/11/27 12:07:07;;;;;;;7.18;2.35;;;9.80;99.90;;;;;;5072309;28;20083;-72
2023/11/27 12:09:34;;;;;;;5.32;2.40;;;9.80;99.90;;;;;;5073500;28;20102;-71
2023/11/27 12:12:01;;;;;;;4.00;2.35;;;9.90;99.90;;;;;;5089120;28;20354;-71
2023/11/27 12:14:32;;;;;;;4.65;2.40;;;9.90;99.90;;;;;;5081047;28;20444;-71
2023/11/27 12:16:59;;;;;;;4.55;2.53;;;9.90;99.90;;;;;;5072316;28;20036;-71
2023/11/27 12:19:27;;;;;;;2.50;2.20;;;10.00;99.90;;;;;;5085014;28;20047;-71
2023/11/27 12:21:54;;;;;;;5.95;2.60;;;9.90;99.90;;;;;;5092637;28;20058;-71
2023/11/27 12:24:21;;;;;;;6.18;2.67;;;10.00;99.90;;;;;;5081921;28;20040;-71
2023/11/27 12:26:51;;;;;;;4.30;2.40;;;9.90;99.90;;;;;;5073388;28;20072;-72
2023/11/27 12:29:20;;;;;;;5.85;2.63;;;10.00;99.90;;;;;;5073245;28;20040;-72
2023/11/27 12:31:47;;;;;;;5.47;2.55;;;10.00;99.90;;;;;;5073220;28;20041;-72
2023/11/27 12:34:14;;;;;;;3.60;2.33;;;9.90;99.90;;;;;;5073286;28;20047;-72
2023/11/27 12:36:41;;;;;;;4.65;2.40;;;9.90;99.90;;;;;;5073132;28;20119;-71
2023/11/27 12:39:11;;;;;;;3.33;2.40;;;9.90;99.90;;;;;;5072879;28;20118;-71
2023/11/27 12:41:38;;;;;;;5.47;2.90;;;9.80;99.90;;;;;;5085293;28;20044;-72
2023/11/27 12:44:06;;;;;;;3.85;2.05;;;9.90;99.90;;;;;;5085006;28;20053;-71
2023/11/27 12:46:33;;;;;;;5.43;2.40;;;10.00;99.90;;;;;;5073660;28;20477;-71
2023/11/27 12:49:00;;;;;;;3.53;2.13;;;10.00;99.90;;;;;;5072094;28;20056;-71
2023/11/27 12:51:29;;;;;;;4.63;2.60;;;10.00;99.90;;;;;;5072977;28;20039;-72
2023/11/27 12:53:57;;;;;;;5.80;2.33;;;10.00;99.90;;;;;;5072912;28;20047;-71
2023/11/27 12:56:24;;;;;;;4.10;2.20;;;10.00;99.90;;;;;;5073022;28;20695;-72